Aérodrome :







RETROUVEZ-NOUS SUR...

 
LOGIN :

S'inscrire | Disclaimer

   EN    FR    IT 

 









Légende :    VFR   VFR Marginal   IFR   IFR Intensif   IFR Très Intensif
Visi : 
Plafond : 
>= 8 km
>= 3000ft
5 à 8 km
1000 à 3000 ft
1500m à 5 km
500 à 1000 ft
800 à 1500m
200 à 500 ft
< 800m
< 200 ft
Symboles :   Orages  Brouillard  Fortes neiges  Fortes précipitations  Vent > 20 kt






- Altitude de l'aérodrome : 54 ft
- Code IATA : BEL


SBBE - Val de Cans Int.

DERNIER METAR :
  • 210300Z 22003KT 9999 FEW015 BKN100 23/23 Q1012

METARs EXPIRÉS :
  • 210200Z 07002KT 9999 -RA SCT015 BKN100 23/23 Q1012
  • 210100Z 10005KT 9999 -RA FEW005 SCT015 BKN100 23/23 Q1011

TAF TAF SBBE
Valide du 21 à 00h jusqu'au 22 à 00h UTC


202128Z 2100/2124 07007KT 9999 SCT017 TN24/2109Z TX30/2115Z
PROB40
TEMPO 2104/2109 2500 RA BKN009
BECMG 2113/2115 34007KT 6000 BKN017 FEW025TCU
PROB40 2118/2121 04007KT 3000 TSRA BKN017 FEW025CB
BECMG 2121/2123 15005KT 8000 SCT020 RMK PHN



MET'MAP, la Météo Aéronautique d'un coup d'oeil ! - Copyright ORBIFLY Décembre 2007 - Disclaimer

ORBIFLY MET'MAP TEAM :

Programmation & Développement : Alexandra Zaïnal
Sur une idée originale de : Baudouin d'Aumeries
Assistance à la programmation : Marc-Olivier Méhu
Soutien technique & logistique : Manuel Goepfert

Contact : metmap@orbifly.com




SOURCES & CREDITS :

   NOAA